KHOU/HOU METAR and TAF weather

Enter ICAO airport designator
Station Type Date Time Source
KHOU METAR 2019/06/17 12:53 UTC NOAA

KHOU 171253Z 13013KT 10SM -RA BKN120 OVC150 22/19 A2984 RMK AO2 SLP108 P0003 T02170194


Station Type Date Time Source
KHOU Decoded METAR 2019/06/17 12:53 UTC NOAA

HOUSTON HOBBY AIRPORT, TX, United States (KHOU) 29-38N 095-17W 36M
Jun 17, 2019 - 08:53 AM EDT / 2019.06.17 1253 UTC
Wind: from the SE (130 degrees) at 15 MPH (13 KT):0
Visibility: 10 mile(s):0
Sky conditions: overcast
Weather: light rain
Precipitation last hour: 0.03 inches
Temperature: 71.1 F (21.7 C)
Dew Point: 66.9 F (19.4 C)
Relative Humidity: 86%
Pressure (altimeter): 29.84 in. Hg (1010 hPa)
ob: KHOU 171253Z 13013KT 10SM -RA BKN120 OVC150 22/19 A2984 RMK AO2 SLP108 P0003 T02170194
cycle: 13

Station Type Date Time Source
KHOU TAF 2019/06/17 12:24 UTC NOAA

TAF KHOU 171122Z 1712/1812 20006KT P6SM -SHRA SCT009 SCT050 BKN110
TEMPO 1712/1713 6SM SHRA BKN009
FM171300 18007KT P6SM VCSH SCT045 BKN100
FM171600 17007KT P6SM VCSH SCT020 OVC090
FM180000 17005KT P6SM SCT020 BKN100
FM180900 VRB03KT P6SM FEW010 BKN200

Example: see airport list